createdAt,value
2023-05-24T00:01:16.740Z,20.45
2023-05-24T00:03:46.930Z,20.45
2023-05-24T00:06:13.476Z,20.42
2023-05-24T00:08:39.859Z,20.41
2023-05-24T00:11:06.237Z,20.38
2023-05-24T00:13:32.610Z,20.32
2023-05-24T00:15:59.105Z,20.35
2023-05-24T00:18:26.200Z,20.33
2023-05-24T00:20:53.392Z,20.31
2023-05-24T00:23:19.848Z,20.30
2023-05-24T00:25:46.226Z,20.26
2023-05-24T00:28:12.602Z,20.25
2023-05-24T00:30:39.011Z,20.23
2023-05-24T00:33:05.635Z,20.19
2023-05-24T00:35:31.999Z,20.16
2023-05-24T00:37:58.461Z,20.15
2023-05-24T00:40:24.820Z,20.13
2023-05-24T00:42:51.207Z,20.14
2023-05-24T00:45:17.800Z,20.12
2023-05-24T00:47:44.224Z,20.12
2023-05-24T00:50:12.934Z,20.10
2023-05-24T00:52:39.749Z,20.08
2023-05-24T00:55:06.468Z,20.05
2023-05-24T00:57:32.823Z,20.03
2023-05-24T00:59:59.186Z,20.03
2023-05-24T01:02:25.957Z,20.05
2023-05-24T01:04:52.414Z,20.02
2023-05-24T01:07:22.788Z,20.00
2023-05-24T01:10:00.724Z,19.97
2023-05-24T01:12:30.132Z,19.97
2023-05-24T01:15:11.300Z,19.97
2023-05-24T01:18:01.763Z,19.96
2023-05-24T01:20:32.466Z,19.94
2023-05-24T01:23:14.728Z,19.94
2023-05-24T01:25:45.332Z,19.96
2023-05-24T01:28:11.734Z,19.91
2023-05-24T01:30:39.394Z,19.89
2023-05-24T01:33:06.075Z,19.87
2023-05-24T01:35:34.337Z,19.88
2023-05-24T01:38:00.956Z,19.84
2023-05-24T01:40:27.319Z,19.83
2023-05-24T01:42:58.620Z,19.82
2023-05-24T01:45:27.915Z,19.82
2023-05-24T01:48:18.921Z,19.77
2023-05-24T01:50:46.422Z,19.78
2023-05-24T01:53:13.117Z,19.77
2023-05-24T01:55:39.468Z,19.78
2023-05-24T01:58:06.274Z,19.75
2023-05-24T02:00:32.996Z,19.75
2023-05-24T02:02:59.409Z,19.75
2023-05-24T02:05:25.860Z,19.87
2023-05-24T02:07:52.399Z,20.03
2023-05-24T02:10:19.232Z,20.08
2023-05-24T02:12:45.819Z,20.10
2023-05-24T02:15:14.620Z,20.15
2023-05-24T02:17:42.869Z,20.18
2023-05-24T02:20:09.759Z,20.18
2023-05-24T02:22:36.136Z,20.20
2023-05-24T02:25:02.843Z,20.18
2023-05-24T02:27:29.232Z,20.15
2023-05-24T02:29:55.989Z,20.19
2023-05-24T02:32:22.655Z,20.35
2023-05-24T02:34:49.034Z,20.44
2023-05-24T02:37:15.467Z,20.51
2023-05-24T02:39:42.508Z,20.58
2023-05-24T02:42:09.108Z,20.62
2023-05-24T02:44:35.557Z,20.66
2023-05-24T02:47:01.929Z,20.71
2023-05-24T02:49:28.290Z,20.75
2023-05-24T02:51:54.703Z,20.76
2023-05-24T02:54:21.216Z,20.78
2023-05-24T02:56:48.037Z,20.81
2023-05-24T02:59:14.749Z,20.84
2023-05-24T03:01:41.150Z,20.85
2023-05-24T03:04:07.560Z,20.85
2023-05-24T03:06:34.034Z,20.85
2023-05-24T03:09:00.995Z,20.86
2023-05-24T03:11:27.462Z,20.84
2023-05-24T03:13:53.866Z,20.84
2023-05-24T03:16:21.086Z,20.83
2023-05-24T03:18:50.572Z,20.86
2023-05-24T03:21:17.328Z,20.85
2023-05-24T03:23:43.793Z,20.86
2023-05-24T03:26:10.159Z,20.86
2023-05-24T03:28:36.517Z,20.84
2023-05-24T03:31:02.983Z,20.84
2023-05-24T03:33:29.344Z,20.84
2023-05-24T03:35:55.747Z,20.83
2023-05-24T03:38:22.116Z,20.83
2023-05-24T03:40:48.480Z,20.81
2023-05-24T03:43:15.534Z,20.81
2023-05-24T03:45:41.974Z,20.79
2023-05-24T03:48:08.368Z,20.78
2023-05-24T03:50:34.850Z,20.77
2023-05-24T03:53:01.202Z,20.75
2023-05-24T03:55:27.579Z,20.76
2023-05-24T03:57:53.935Z,20.76
2023-05-24T04:00:20.302Z,20.76
2023-05-24T04:02:46.736Z,20.78
2023-05-24T04:05:13.443Z,20.82
2023-05-24T04:07:40.055Z,20.83
2023-05-24T04:10:06.649Z,20.86
2023-05-24T04:12:33.169Z,20.85
2023-05-24T04:14:59.786Z,20.83
2023-05-24T04:17:27.398Z,20.86
2023-05-24T04:19:54.182Z,20.87
2023-05-24T04:22:20.625Z,20.86
2023-05-24T04:24:47.036Z,20.86
2023-05-24T04:27:13.432Z,20.84
2023-05-24T04:29:40.183Z,20.84
2023-05-24T04:32:06.738Z,20.83
2023-05-24T04:34:35.782Z,20.83
2023-05-24T04:37:02.236Z,20.83
2023-05-24T04:39:31.597Z,20.78
2023-05-24T04:41:58.209Z,20.83
2023-05-24T04:44:24.598Z,20.82
2023-05-24T04:46:51.011Z,20.80
2023-05-24T04:49:17.746Z,20.82
2023-05-24T04:51:44.100Z,20.82
2023-05-24T04:54:10.487Z,20.84
2023-05-24T04:56:38.412Z,20.87
2023-05-24T04:59:05.893Z,20.88
2023-05-24T05:01:32.494Z,20.87
2023-05-24T05:03:59.086Z,20.88
2023-05-24T05:06:25.706Z,20.90
2023-05-24T05:08:52.369Z,20.90
2023-05-24T05:11:19.127Z,20.91
2023-05-24T05:13:45.514Z,20.90
2023-05-24T05:16:11.900Z,20.90
2023-05-24T05:18:38.298Z,20.90
2023-05-24T05:21:04.673Z,20.89
2023-05-24T05:23:31.035Z,20.93
2023-05-24T05:25:57.387Z,20.97
2023-05-24T05:28:23.789Z,20.98
2023-05-24T05:30:50.184Z,21.05
2023-05-24T05:33:16.598Z,21.04
2023-05-24T05:35:43.024Z,21.07
2023-05-24T05:38:09.376Z,21.08
2023-05-24T05:40:36.026Z,21.16
2023-05-24T05:43:02.433Z,21.25
2023-05-24T05:45:28.801Z,21.27
2023-05-24T05:47:55.387Z,21.33
2023-05-24T05:50:21.803Z,21.42
2023-05-24T05:52:48.171Z,21.51
2023-05-24T05:55:14.529Z,21.52
2023-05-24T05:57:40.896Z,21.57
2023-05-24T06:00:07.537Z,21.64
2023-05-24T06:02:34.034Z,21.70
2023-05-24T06:05:00.580Z,21.77
2023-05-24T06:07:26.995Z,21.80
2023-05-24T06:09:53.374Z,21.81
2023-05-24T06:12:19.729Z,21.85
2023-05-24T06:14:48.246Z,21.85
2023-05-24T06:17:14.608Z,21.87
2023-05-24T06:19:40.984Z,21.86
2023-05-24T06:22:07.338Z,21.81
2023-05-24T06:24:34.820Z,21.91
2023-05-24T06:27:03.337Z,21.92
2023-05-24T06:29:31.696Z,21.88
2023-05-24T06:31:58.149Z,21.77
2023-05-24T06:34:24.552Z,21.74
2023-05-24T06:36:52.838Z,21.85
2023-05-24T06:39:19.456Z,21.89
2023-05-24T06:41:46.939Z,21.94
2023-05-24T06:44:13.471Z,21.99
2023-05-24T06:46:39.913Z,22.04
2023-05-24T06:49:06.968Z,22.03
2023-05-24T06:51:33.789Z,21.99
2023-05-24T06:54:00.960Z,21.95
2023-05-24T06:56:27.325Z,21.92
2023-05-24T06:58:53.680Z,21.82
2023-05-24T07:01:20.180Z,21.85
2023-05-24T07:03:46.925Z,21.94
2023-05-24T07:06:14.379Z,22.02
2023-05-24T07:08:41.884Z,22.07
2023-05-24T07:11:08.726Z,22.17
2023-05-24T07:13:35.114Z,22.17
2023-05-24T07:16:01.569Z,22.10
2023-05-24T07:18:28.211Z,22.00
2023-05-24T07:20:54.999Z,21.96
2023-05-24T07:23:21.435Z,22.06
2023-05-24T07:25:47.809Z,22.04
2023-05-24T07:28:20.318Z,21.94
2023-05-24T07:30:46.855Z,21.89
2023-05-24T07:33:13.619Z,21.83
2023-05-24T07:35:40.153Z,21.79
2023-05-24T07:38:06.968Z,21.78
2023-05-24T07:40:33.337Z,21.80
2023-05-24T07:42:59.716Z,21.80
2023-05-24T07:45:26.069Z,21.75
2023-05-24T07:47:54.500Z,21.74
2023-05-24T07:50:23.100Z,21.71
2023-05-24T07:52:50.078Z,21.67
2023-05-24T07:55:16.453Z,21.68
2023-05-24T07:57:42.826Z,21.69
2023-05-24T08:00:14.667Z,21.74
2023-05-24T08:02:42.021Z,21.72
2023-05-24T08:05:10.164Z,21.69
2023-05-24T08:07:36.536Z,21.63
2023-05-24T08:10:03.387Z,21.64
2023-05-24T08:12:30.462Z,21.66
2023-05-24T08:14:56.959Z,21.69
2023-05-24T08:17:23.374Z,21.70
2023-05-24T08:19:49.780Z,21.68
2023-05-24T08:22:16.201Z,21.69
2023-05-24T08:24:42.593Z,21.71
2023-05-24T08:27:09.024Z,21.68
2023-05-24T08:29:35.735Z,21.69
2023-05-24T08:32:02.828Z,21.70
2023-05-24T08:34:29.692Z,21.72
2023-05-24T08:36:56.123Z,21.72
2023-05-24T08:39:22.647Z,21.75
2023-05-24T08:42:00.977Z,21.76
2023-05-24T08:44:37.213Z,21.73
2023-05-24T08:47:03.960Z,21.73
2023-05-24T08:49:33.586Z,21.74
2023-05-24T08:52:00.195Z,21.73
2023-05-24T08:54:27.090Z,21.69
2023-05-24T08:56:53.464Z,21.66
2023-05-24T08:59:19.938Z,21.63
2023-05-24T09:01:46.330Z,21.60
2023-05-24T09:04:12.981Z,21.58
2023-05-24T09:06:39.384Z,21.56
2023-05-24T09:09:05.866Z,21.54
2023-05-24T09:11:32.279Z,21.53
2023-05-24T09:13:58.685Z,21.52
2023-05-24T09:16:25.146Z,21.51
2023-05-24T09:18:51.543Z,21.49
2023-05-24T09:21:17.891Z,21.52
2023-05-24T09:23:44.664Z,21.51
2023-05-24T09:26:11.409Z,21.51
2023-05-24T09:28:37.956Z,21.50
2023-05-24T09:31:07.482Z,21.48
2023-05-24T09:33:34.629Z,21.48
2023-05-24T09:36:04.413Z,21.49
2023-05-24T09:38:30.806Z,21.51
2023-05-24T09:41:07.027Z,21.50
2023-05-24T09:43:34.633Z,21.49
2023-05-24T09:46:04.637Z,21.49
2023-05-24T09:48:31.569Z,21.50
2023-05-24T09:51:09.568Z,21.50
2023-05-24T09:53:36.136Z,21.49
2023-05-24T09:56:05.562Z,21.50
2023-05-24T09:58:33.430Z,21.51
2023-05-24T10:01:06.672Z,21.55
2023-05-24T10:03:33.380Z,21.61
2023-05-24T10:05:59.806Z,21.61
2023-05-24T10:08:26.512Z,21.61
2023-05-24T10:10:52.894Z,21.64
2023-05-24T10:13:19.266Z,21.69
2023-05-24T10:15:45.916Z,21.70
2023-05-24T10:18:14.198Z,21.73
2023-05-24T10:20:41.699Z,21.72
2023-05-24T10:23:09.896Z,21.71
2023-05-24T10:25:36.248Z,21.73
2023-05-24T10:28:03.491Z,21.74
2023-05-24T10:30:45.233Z,21.72
2023-05-24T10:33:12.631Z,21.72
2023-05-24T10:35:39.214Z,21.74
2023-05-24T10:38:06.436Z,21.76
2023-05-24T10:40:32.794Z,21.78
2023-05-24T10:42:59.221Z,21.74
2023-05-24T10:45:25.517Z,21.71
2023-05-24T10:47:52.185Z,21.71
2023-05-24T10:50:19.111Z,21.73
2023-05-24T10:52:45.733Z,21.70
2023-05-24T10:55:13.135Z,21.68
2023-05-24T10:57:39.883Z,21.67
2023-05-24T11:00:47.530Z,21.66
2023-05-24T11:03:16.709Z,21.61
2023-05-24T11:05:46.872Z,21.61
2023-05-24T11:08:13.419Z,21.59
2023-05-24T11:10:44.054Z,21.59
2023-05-24T11:13:10.879Z,21.57
2023-05-24T11:15:37.325Z,21.57
2023-05-24T11:18:06.659Z,21.57
2023-05-24T11:20:33.393Z,21.57
2023-05-24T11:23:00.686Z,21.57
2023-05-24T11:25:27.187Z,21.58
2023-05-24T11:27:53.613Z,21.58
2023-05-24T11:30:20.641Z,21.57
2023-05-24T11:32:50.296Z,21.58
2023-05-24T11:35:18.516Z,21.58
2023-05-24T11:37:46.943Z,21.61
2023-05-24T11:40:13.496Z,21.63
2023-05-24T11:42:39.921Z,21.66
2023-05-24T11:45:07.049Z,21.63
2023-05-24T11:47:37.657Z,21.65
2023-05-24T11:50:04.097Z,21.63
2023-05-24T11:52:30.499Z,21.63
2023-05-24T11:54:56.970Z,21.61
2023-05-24T11:57:27.772Z,21.63
2023-05-24T11:59:55.326Z,21.63
2023-05-24T12:02:21.929Z,21.60
2023-05-24T12:04:48.470Z,21.60
2023-05-24T12:07:15.297Z,21.57
2023-05-24T12:09:41.668Z,21.60
2023-05-24T12:12:08.059Z,21.57
2023-05-24T12:14:35.409Z,21.61
2023-05-24T12:17:01.795Z,21.62
2023-05-24T12:19:37.275Z,21.63
2023-05-24T12:22:05.181Z,21.62
2023-05-24T12:24:31.727Z,21.68
2023-05-24T12:26:58.636Z,21.68
2023-05-24T12:29:25.015Z,21.69
2023-05-24T12:31:51.497Z,21.69
2023-05-24T12:34:18.652Z,21.71
2023-05-24T12:36:45.134Z,21.73
2023-05-24T12:39:20.702Z,21.72
2023-05-24T12:41:50.399Z,21.71
2023-05-24T12:44:16.748Z,21.70
2023-05-24T12:46:43.123Z,21.69
2023-05-24T12:49:09.883Z,21.68
2023-05-24T12:51:36.796Z,21.69
2023-05-24T12:54:04.882Z,21.68
2023-05-24T12:56:31.362Z,21.66
2023-05-24T12:58:57.744Z,21.67
2023-05-24T13:01:25.535Z,21.69
2023-05-24T13:03:52.141Z,21.71
2023-05-24T13:06:18.521Z,21.73
2023-05-24T13:08:45.309Z,21.73
2023-05-24T13:11:11.676Z,21.76
2023-05-24T13:13:38.328Z,21.74
2023-05-24T13:16:07.632Z,21.73
2023-05-24T13:18:34.003Z,21.77
2023-05-24T13:21:00.758Z,21.78
2023-05-24T13:23:27.375Z,21.78
2023-05-24T13:25:53.823Z,21.74
2023-05-24T13:28:20.185Z,21.74
2023-05-24T13:30:49.596Z,21.75
2023-05-24T13:33:16.366Z,21.79
2023-05-24T13:35:42.921Z,21.78
2023-05-24T13:38:09.602Z,21.81
2023-05-24T13:40:37.451Z,21.82
2023-05-24T13:43:05.337Z,21.85
2023-05-24T13:45:33.159Z,21.85
2023-05-24T13:48:03.966Z,21.84
2023-05-24T13:50:31.207Z,21.82
2023-05-24T13:52:58.067Z,21.82
2023-05-24T13:55:24.439Z,21.77
2023-05-24T13:57:52.363Z,21.77
2023-05-24T14:00:19.044Z,21.76
2023-05-24T14:02:45.506Z,21.74
2023-05-24T14:05:24.972Z,21.73
2023-05-24T14:07:55.596Z,21.72
2023-05-24T14:10:22.159Z,21.73
2023-05-24T14:12:56.433Z,21.71
2023-05-24T14:15:34.893Z,21.69
2023-05-24T14:18:01.363Z,21.70
2023-05-24T14:20:27.822Z,21.70
2023-05-24T14:22:54.926Z,21.69
2023-05-24T14:25:22.813Z,21.72
2023-05-24T14:27:49.258Z,21.72
2023-05-24T14:30:15.770Z,21.69
2023-05-24T14:32:42.172Z,21.69
2023-05-24T14:35:08.568Z,21.68
2023-05-24T14:37:34.962Z,21.67
2023-05-24T14:40:01.430Z,21.68
2023-05-24T14:42:27.837Z,21.70
2023-05-24T14:44:54.209Z,21.68
2023-05-24T14:47:20.628Z,21.71
2023-05-24T14:49:46.996Z,21.70
2023-05-24T14:52:13.372Z,21.70
2023-05-24T14:54:39.734Z,21.73
2023-05-24T14:57:07.810Z,21.73
2023-05-24T14:59:34.165Z,21.73
2023-05-24T15:02:00.550Z,21.73
2023-05-24T15:04:28.060Z,21.72
2023-05-24T15:06:54.551Z,21.69
2023-05-24T15:09:21.210Z,21.68
2023-05-24T15:11:47.681Z,21.71
2023-05-24T15:14:14.644Z,21.68
2023-05-24T15:16:41.184Z,21.72
2023-05-24T15:19:08.959Z,21.72
2023-05-24T15:21:36.826Z,21.71
2023-05-24T15:24:03.197Z,21.68
2023-05-24T15:26:29.574Z,21.69
2023-05-24T15:28:57.863Z,21.67
2023-05-24T15:31:24.652Z,21.71
2023-05-24T15:33:51.017Z,21.71
2023-05-24T15:36:17.396Z,21.76
2023-05-24T15:38:43.760Z,21.73
2023-05-24T15:41:10.133Z,21.74
2023-05-24T15:43:36.526Z,21.76
2023-05-24T15:46:02.889Z,21.78
2023-05-24T15:48:29.251Z,21.78
2023-05-24T15:51:43.011Z,21.77
2023-05-24T15:53:41.953Z,21.77
2023-05-24T15:56:08.764Z,21.79
2023-05-24T15:58:35.139Z,21.78
2023-05-24T16:01:01.492Z,21.79
2023-05-24T16:03:28.303Z,21.76
2023-05-24T16:05:54.704Z,21.81
2023-05-24T16:08:27.469Z,21.80
2023-05-24T16:10:54.286Z,21.81
2023-05-24T16:13:21.565Z,21.82
2023-05-24T16:15:51.477Z,21.85
2023-05-24T16:18:21.208Z,21.86
2023-05-24T16:20:50.409Z,21.12
2023-05-24T16:23:17.062Z,21.16
2023-05-24T16:25:43.940Z,21.59
2023-05-24T16:28:10.313Z,21.68
2023-05-24T16:30:36.836Z,21.73
2023-05-24T16:33:03.258Z,21.75
2023-05-24T16:35:29.740Z,21.75
2023-05-24T16:37:56.279Z,21.51
2023-05-24T16:40:22.659Z,21.73
2023-05-24T16:42:51.124Z,21.77
2023-05-24T16:45:17.501Z,21.75
2023-05-24T16:47:43.898Z,21.80
2023-05-24T16:50:14.827Z,21.22
2023-05-24T16:52:44.210Z,21.15
2023-05-24T16:55:11.086Z,21.49
2023-05-24T16:57:37.628Z,21.67
2023-05-24T17:00:04.645Z,21.65
2023-05-24T17:02:31.021Z,21.76
2023-05-24T17:04:57.478Z,21.82
2023-05-24T17:07:23.899Z,21.81
2023-05-24T17:09:51.002Z,21.84
2023-05-24T17:12:17.592Z,21.86
2023-05-24T17:14:44.117Z,21.80
2023-05-24T17:17:11.821Z,21.78
2023-05-24T17:19:38.611Z,21.78
2023-05-24T17:22:05.996Z,21.80
2023-05-24T17:24:32.367Z,21.79
2023-05-24T17:26:59.192Z,21.80
2023-05-24T17:29:26.664Z,21.77
2023-05-24T17:31:53.092Z,21.78
2023-05-24T17:34:19.519Z,21.76
2023-05-24T17:36:45.906Z,21.75
2023-05-24T17:39:12.298Z,21.74
2023-05-24T17:41:38.679Z,21.74
2023-05-24T17:44:05.179Z,21.73
2023-05-24T17:46:33.564Z,21.71
2023-05-24T17:49:02.154Z,21.71
2023-05-24T17:51:28.536Z,21.69
2023-05-24T17:53:54.953Z,21.68
2023-05-24T17:56:23.162Z,21.68
2023-05-24T17:58:50.098Z,21.69
2023-05-24T18:01:16.987Z,21.70
2023-05-24T18:03:43.388Z,21.69
2023-05-24T18:06:09.751Z,21.70
2023-05-24T18:08:37.875Z,21.74
2023-05-24T18:11:08.207Z,21.74
2023-05-24T18:13:35.129Z,21.76
2023-05-24T18:16:02.262Z,21.79
2023-05-24T18:18:28.771Z,21.76
2023-05-24T18:20:55.143Z,21.75
2023-05-24T18:23:22.821Z,21.78
2023-05-24T18:25:49.546Z,21.78
2023-05-24T18:28:15.954Z,21.76
2023-05-24T18:30:42.392Z,21.72
2023-05-24T18:33:08.875Z,21.75
2023-05-24T18:35:35.682Z,21.76
2023-05-24T18:38:02.068Z,21.75
2023-05-24T18:40:28.422Z,21.73
2023-05-24T18:42:54.807Z,21.72
2023-05-24T18:45:21.216Z,21.71
2023-05-24T18:47:47.931Z,21.67
2023-05-24T18:50:14.351Z,21.66
2023-05-24T18:52:42.654Z,21.66
2023-05-24T18:55:11.851Z,21.63
2023-05-24T18:57:38.455Z,21.62
2023-05-24T19:00:07.965Z,21.61
2023-05-24T19:02:39.043Z,21.57
2023-05-24T19:05:06.294Z,21.59
2023-05-24T19:07:32.656Z,21.60
2023-05-24T19:09:59.071Z,21.59
2023-05-24T19:12:25.558Z,21.62
2023-05-24T19:14:52.372Z,21.62
2023-05-24T19:17:18.719Z,21.64
2023-05-24T19:19:45.498Z,21.63
2023-05-24T19:22:11.926Z,21.63
2023-05-24T19:24:38.292Z,21.62
2023-05-24T19:27:04.655Z,21.62
2023-05-24T19:29:31.138Z,21.63
2023-05-24T19:31:57.563Z,21.62
2023-05-24T19:34:23.997Z,21.63
2023-05-24T19:36:50.427Z,21.65
2023-05-24T19:39:16.876Z,21.65
2023-05-24T19:41:43.477Z,21.65
2023-05-24T19:44:09.830Z,21.66
2023-05-24T19:46:37.189Z,21.61
2023-05-24T19:49:03.772Z,21.62
2023-05-24T19:51:30.168Z,21.63
2023-05-24T19:53:56.641Z,21.63
2023-05-24T19:56:23.654Z,21.62
2023-05-24T19:58:50.131Z,21.63
2023-05-24T20:01:16.594Z,21.65
2023-05-24T20:03:48.261Z,21.61
2023-05-24T20:06:15.609Z,21.62
2023-05-24T20:08:42.069Z,21.56
2023-05-24T20:11:08.479Z,21.54
2023-05-24T20:13:34.831Z,21.51
2023-05-24T20:16:01.256Z,21.50
2023-05-24T20:18:27.633Z,21.49
2023-05-24T20:20:55.176Z,21.49
2023-05-24T20:23:27.247Z,21.49
2023-05-24T20:25:54.807Z,21.47
2023-05-24T20:28:30.272Z,21.46
2023-05-24T20:30:57.428Z,21.44
2023-05-24T20:33:23.815Z,21.42
2023-05-24T20:35:50.353Z,21.42
2023-05-24T20:38:17.102Z,21.43
2023-05-24T20:40:43.470Z,21.43
2023-05-24T20:43:09.898Z,21.42
2023-05-24T20:45:36.269Z,21.42
2023-05-24T20:48:02.877Z,21.44
2023-05-24T20:50:29.311Z,21.42
2023-05-24T20:52:55.933Z,21.43
2023-05-24T20:55:23.130Z,21.42
2023-05-24T20:57:51.244Z,21.41
2023-05-24T21:00:17.720Z,21.40
2023-05-24T21:02:44.428Z,21.40
2023-05-24T21:05:10.974Z,21.40
2023-05-24T21:07:37.371Z,21.40
2023-05-24T21:10:03.779Z,21.38
2023-05-24T21:12:30.163Z,21.38
2023-05-24T21:14:56.677Z,21.36
2023-05-24T21:17:23.139Z,21.36
2023-05-24T21:19:49.621Z,21.36
2023-05-24T21:22:16.008Z,21.34
2023-05-24T21:24:42.378Z,21.35
2023-05-24T21:27:08.744Z,21.34
2023-05-24T21:29:37.954Z,21.34
2023-05-24T21:32:04.468Z,21.31
2023-05-24T21:34:30.857Z,21.29
2023-05-24T21:36:57.253Z,21.29
2023-05-24T21:39:23.767Z,21.26
2023-05-24T21:41:50.124Z,21.26
2023-05-24T21:44:16.551Z,21.25
2023-05-24T21:46:43.022Z,21.24
2023-05-24T21:49:09.422Z,21.24
2023-05-24T21:51:37.263Z,21.23
2023-05-24T21:54:03.659Z,21.22
2023-05-24T21:56:30.218Z,21.22
2023-05-24T21:58:56.611Z,21.22
2023-05-24T22:01:23.022Z,21.21
2023-05-24T22:03:49.520Z,21.20
2023-05-24T22:06:16.215Z,21.20
2023-05-24T22:08:42.733Z,21.19
2023-05-24T22:11:09.098Z,21.19
2023-05-24T22:13:35.500Z,21.19
2023-05-24T22:16:02.006Z,21.18
2023-05-24T22:18:30.396Z,21.19
2023-05-24T22:20:59.714Z,21.19
2023-05-24T22:23:26.140Z,21.14
2023-05-24T22:25:52.529Z,21.17
2023-05-24T22:28:19.986Z,21.16
2023-05-24T22:30:46.968Z,21.15
2023-05-24T22:33:13.995Z,21.14
2023-05-24T22:35:40.378Z,21.13
2023-05-24T22:38:07.250Z,21.13
2023-05-24T22:40:35.886Z,21.12
2023-05-24T22:43:02.370Z,21.12
2023-05-24T22:45:28.736Z,21.11
2023-05-24T22:47:58.225Z,21.09
2023-05-24T22:50:25.437Z,21.09
2023-05-24T22:52:51.786Z,21.05
2023-05-24T22:55:18.181Z,21.09
2023-05-24T22:57:44.545Z,21.08
2023-05-24T23:00:11.686Z,21.07
2023-05-24T23:02:38.220Z,21.07
2023-05-24T23:05:05.323Z,21.07
2023-05-24T23:07:31.719Z,21.07
2023-05-24T23:09:59.727Z,21.06
2023-05-24T23:12:26.463Z,21.06
2023-05-24T23:14:54.050Z,21.06
2023-05-24T23:17:22.241Z,21.06
2023-05-24T23:19:50.179Z,21.06
2023-05-24T23:22:19.636Z,21.05
2023-05-24T23:24:47.093Z,21.05
2023-05-24T23:27:13.701Z,21.04
2023-05-24T23:29:40.114Z,21.03
2023-05-24T23:32:09.474Z,21.03
2023-05-24T23:34:36.252Z,21.01
2023-05-24T23:37:03.005Z,21.01
2023-05-24T23:39:29.355Z,21.00
2023-05-24T23:41:55.991Z,20.99
2023-05-24T23:44:23.561Z,20.99
2023-05-24T23:46:50.527Z,20.97
2023-05-24T23:49:16.921Z,20.96
2023-05-24T23:51:43.284Z,20.97
2023-05-24T23:54:09.648Z,20.97
2023-05-24T23:56:36.938Z,20.97
2023-05-24T23:59:04.701Z,20.97
